Time;durP1;ratioP1;P1;durP2;ratioP2;P2;SDS_P1;SDS_P2;PMS_P1;PMS_P2;Temp;Humidity;BMP_temperature;BMP_pressure;BME280_temperature;BME280_humidity;BME280_pressure;Samples;Min_cycle;Max_cycle;Signal;HPM_P1;HPM_P2
2023/08/29 00:01:52;;;;;;;0.20;0.20;;;;;;;;;;4979363;28;59140;-72
2023/08/29 00:04:17;;;;;;;0.87;0.50;;;;;;;;;;4957141;28;58575;-72
2023/08/29 00:06:42;;;;;;;0.20;0.20;;;;;;;;;;4979630;28;58939;-74
2023/08/29 00:09:07;;;;;;;0.20;0.20;;;;;;;;;;4975453;28;59015;-72
2023/08/29 00:11:32;;;;;;;0.20;0.20;;;;;;;;;;4973120;28;58255;-74
2023/08/29 00:13:57;;;;;;;0.40;0.40;;;;;;;;;;4978427;28;60456;-73
2023/08/29 00:16:23;;;;;;;0.20;0.20;;;;;;;;;;4975383;28;60328;-72
2023/08/29 00:18:48;;;;;;;0.40;0.40;;;;;;;;;;4972875;28;59201;-73
2023/08/29 00:21:13;;;;;;;0.20;0.20;;;;;;;;;;4977279;28;59076;-73
2023/08/29 00:23:38;;;;;;;0.40;0.40;;;;;;;;;;4981848;28;58539;-72
2023/08/29 00:26:03;;;;;;;0.17;0.17;;;;;;;;;;4979301;28;58561;-73
2023/08/29 00:28:28;;;;;;;0.20;0.17;;;;;;;;;;4975464;28;60495;-73
2023/08/29 00:30:54;;;;;;;0.30;0.23;;;;;;;;;;4982241;28;58380;-73
2023/08/29 00:33:19;;;;;;;0.22;0.22;;;;;;;;;;4977915;28;58591;-72
2023/08/29 00:35:46;;;;;;;0.40;0.20;;;;;;;;;;4960917;28;58829;-74
2023/08/29 00:38:11;;;;;;;0.20;0.10;;;;;;;;;;4981481;28;58249;-72
2023/08/29 00:40:36;;;;;;;1.20;0.30;;;;;;;;;;4958550;28;60892;-72
2023/08/29 00:43:02;;;;;;;0.20;0.20;;;;;;;;;;4973322;28;58207;-76
2023/08/29 00:45:29;;;;;;;0.20;0.20;;;;;;;;;;4974090;28;58532;-75
2023/08/29 00:47:55;;;;;;;0.30;0.30;;;;;;;;;;4976975;28;58560;-75
2023/08/29 00:50:20;;;;;;;0.40;0.40;;;;;;;;;;4977527;28;58514;-75
2023/08/29 00:52:46;;;;;;;0.22;0.22;;;;;;;;;;4975291;28;58557;-74
2023/08/29 00:55:11;;;;;;;0.50;0.30;;;;;;;;;;4978846;28;58848;-75
2023/08/29 00:57:36;;;;;;;0.73;0.40;;;;;;;;;;4980842;28;58308;-76
2023/08/29 01:00:03;;;;;;;0.20;0.20;;;;;;;;;;4977527;28;58431;-75
2023/08/29 01:02:28;;;;;;;0.23;0.23;;;;;;;;;;4973123;28;58580;-75
2023/08/29 01:04:54;;;;;;;0.20;0.20;;;;;;;;;;4960817;28;59704;-75
2023/08/29 01:07:19;;;;;;;0.40;0.40;;;;;;;;;;4972564;28;59190;-76
2023/08/29 01:09:44;;;;;;;0.30;0.30;;;;;;;;;;4981203;28;58432;-74
2023/08/29 01:12:16;;;;;;;1.60;0.20;;;;;;;;;;4974335;28;58691;-75
2023/08/29 01:14:53;;;;;;;0.20;0.20;;;;;;;;;;4957902;28;60350;-76
2023/08/29 01:17:26;;;;;;;0.30;0.30;;;;;;;;;;4975378;28;58359;-75
2023/08/29 01:19:52;;;;;;;0.13;0.13;;;;;;;;;;4960150;28;60285;-75
2023/08/29 01:22:49;;;;;;;0.20;0.20;;;;;;;;;;4974673;28;58511;-77
2023/08/29 01:25:17;;;;;;;1.85;0.25;;;;;;;;;;4976634;28;59867;-75
2023/08/29 01:27:42;;;;;;;;;;;;;;;;;;4972689;28;59100;-77
2023/08/29 01:30:08;;;;;;;0.38;0.38;;;;;;;;;;4979360;28;58409;-74
2023/08/29 01:32:33;;;;;;;0.28;0.28;;;;;;;;;;4973379;28;59151;-77
2023/08/29 01:34:58;;;;;;;0.30;0.30;;;;;;;;;;4979436;28;59169;-74
2023/08/29 01:37:23;;;;;;;0.28;0.25;;;;;;;;;;4970274;28;58436;-74
2023/08/29 01:39:49;;;;;;;0.20;0.20;;;;;;;;;;4974961;28;60140;-75
2023/08/29 01:42:14;;;;;;;0.28;0.15;;;;;;;;;;4972987;28;58958;-76
2023/08/29 01:44:39;;;;;;;0.10;0.10;;;;;;;;;;4970738;28;59356;-74
2023/08/29 01:47:04;;;;;;;0.20;0.20;;;;;;;;;;4977971;28;58710;-74
2023/08/29 01:49:32;;;;;;;0.20;0.20;;;;;;;;;;4970496;28;58306;-75
2023/08/29 01:51:58;;;;;;;0.22;0.22;;;;;;;;;;4974255;28;58687;-75
2023/08/29 01:54:23;;;;;;;0.20;0.20;;;;;;;;;;4970500;28;58632;-74
2023/08/29 01:56:49;;;;;;;0.20;0.20;;;;;;;;;;4975519;28;58445;-74
2023/08/29 01:59:14;;;;;;;0.20;0.20;;;;;;;;;;4967338;28;58532;-75
2023/08/29 02:01:40;;;;;;;0.30;0.30;;;;;;;;;;4971571;28;58468;-74
2023/08/29 02:04:05;;;;;;;0.43;0.20;;;;;;;;;;4953447;28;58603;-75
2023/08/29 02:06:31;;;;;;;0.27;0.20;;;;;;;;;;4971936;28;58232;-75
2023/08/29 02:08:56;;;;;;;0.17;0.17;;;;;;;;;;4974286;28;58246;-75
2023/08/29 02:11:21;;;;;;;0.37;0.37;;;;;;;;;;4969548;28;59692;-78
2023/08/29 02:13:46;;;;;;;0.30;0.20;;;;;;;;;;4955904;28;58674;-76
2023/08/29 02:16:11;;;;;;;0.10;0.10;;;;;;;;;;4976807;28;58576;-76
2023/08/29 02:18:36;;;;;;;0.20;0.20;;;;;;;;;;4974022;28;58442;-74
2023/08/29 02:21:01;;;;;;;0.30;0.30;;;;;;;;;;4970932;28;58545;-75
2023/08/29 02:23:27;;;;;;;0.20;0.20;;;;;;;;;;4971964;28;58382;-75
2023/08/29 02:26:02;;;;;;;0.20;0.20;;;;;;;;;;4975966;28;58449;-74
2023/08/29 02:28:27;;;;;;;0.10;0.10;;;;;;;;;;4977306;28;58682;-75
2023/08/29 02:30:52;;;;;;;0.30;0.30;;;;;;;;;;4971708;28;60275;-74
2023/08/29 02:33:17;;;;;;;0.20;0.20;;;;;;;;;;4973999;28;58817;-74
2023/08/29 02:35:42;;;;;;;0.33;0.33;;;;;;;;;;4971956;28;58359;-76
2023/08/29 02:38:08;;;;;;;0.30;0.30;;;;;;;;;;4972364;28;59821;-75
2023/08/29 02:40:33;;;;;;;0.20;0.20;;;;;;;;;;4976276;28;58337;-75
2023/08/29 02:42:59;;;;;;;0.37;0.37;;;;;;;;;;4978994;28;58290;-74
2023/08/29 02:45:24;;;;;;;0.30;0.20;;;;;;;;;;4957349;28;59660;-74
2023/08/29 02:47:49;;;;;;;0.30;0.30;;;;;;;;;;4976270;28;58453;-75
2023/08/29 02:50:14;;;;;;;0.13;0.13;;;;;;;;;;4974931;28;58615;-75
2023/08/29 02:52:40;;;;;;;0.20;0.20;;;;;;;;;;4972156;28;58455;-77
2023/08/29 02:55:06;;;;;;;0.63;0.32;;;;;;;;;;4971033;28;58307;-74
2023/08/29 02:57:31;;;;;;;0.10;0.10;;;;;;;;;;4975099;28;59501;-74
2023/08/29 02:59:57;;;;;;;0.37;0.37;;;;;;;;;;4975291;28;59956;-74
2023/08/29 03:02:23;;;;;;;0.20;0.20;;;;;;;;;;4955708;28;58702;-74
2023/08/29 03:04:48;;;;;;;0.20;0.20;;;;;;;;;;4976774;28;59442;-74
2023/08/29 03:07:13;;;;;;;0.13;0.13;;;;;;;;;;4975508;28;58559;-75
2023/08/29 03:09:38;;;;;;;0.35;0.15;;;;;;;;;;4975340;28;58380;-75
2023/08/29 03:12:04;;;;;;;0.40;0.40;;;;;;;;;;4954140;28;60183;-75
2023/08/29 03:14:29;;;;;;;0.27;0.20;;;;;;;;;;4976286;28;58451;-76
2023/08/29 03:16:54;;;;;;;0.33;0.33;;;;;;;;;;4977807;28;59647;-75
2023/08/29 03:19:19;;;;;;;0.40;0.40;;;;;;;;;;4976660;28;58536;-78
2023/08/29 03:21:44;;;;;;;0.50;0.20;;;;;;;;;;4977916;28;58304;-74
2023/08/29 03:24:09;;;;;;;0.47;0.30;;;;;;;;;;4977931;28;58679;-77
2023/08/29 03:26:35;;;;;;;0.20;0.20;;;;;;;;;;4973605;28;58988;-76
2023/08/29 03:29:00;;;;;;;0.20;0.20;;;;;;;;;;4965450;28;58484;-76
2023/08/29 03:31:25;;;;;;;0.30;0.30;;;;;;;;;;4972285;28;58555;-74
2023/08/29 03:33:50;;;;;;;0.20;0.20;;;;;;;;;;4975053;28;58407;-74
2023/08/29 03:36:15;;;;;;;0.20;0.20;;;;;;;;;;4959944;28;59090;-75
2023/08/29 03:38:41;;;;;;;0.23;0.20;;;;;;;;;;4972876;28;58492;-74
2023/08/29 03:41:07;;;;;;;0.75;0.30;;;;;;;;;;4975868;28;58478;-77
2023/08/29 03:43:33;;;;;;;0.23;0.23;;;;;;;;;;4976813;28;59496;-77
2023/08/29 03:45:59;;;;;;;0.20;0.20;;;;;;;;;;4973944;28;58740;-74
2023/08/29 03:48:24;;;;;;;0.35;0.32;;;;;;;;;;4974790;28;58551;-75
2023/08/29 03:50:50;;;;;;;0.30;0.30;;;;;;;;;;4974559;28;58788;-75
2023/08/29 03:53:15;;;;;;;0.10;0.10;;;;;;;;;;4961339;28;58316;-75
2023/08/29 03:55:40;;;;;;;0.17;0.17;;;;;;;;;;4973350;28;59422;-76
2023/08/29 03:58:06;;;;;;;0.10;0.10;;;;;;;;;;4972052;28;58568;-74
2023/08/29 04:00:32;;;;;;;0.30;0.30;;;;;;;;;;4971224;28;58596;-75
2023/08/29 04:02:57;;;;;;;0.20;0.20;;;;;;;;;;4971909;28;59482;-74
2023/08/29 04:05:22;;;;;;;0.37;0.37;;;;;;;;;;4971695;28;58849;-75
2023/08/29 04:07:48;;;;;;;0.20;0.20;;;;;;;;;;4978158;28;57862;-75
2023/08/29 04:10:13;;;;;;;0.13;0.10;;;;;;;;;;4974263;28;59797;-75
2023/08/29 04:12:38;;;;;;;0.30;0.30;;;;;;;;;;4972866;28;58404;-75
2023/08/29 04:15:03;;;;;;;0.40;0.40;;;;;;;;;;4973479;28;58944;-75
2023/08/29 04:17:29;;;;;;;0.10;0.10;;;;;;;;;;4950546;28;58564;-78
2023/08/29 04:19:54;;;;;;;0.37;0.37;;;;;;;;;;4967240;28;58548;-75
2023/08/29 04:22:19;;;;;;;0.10;0.10;;;;;;;;;;4972093;28;58804;-77
2023/08/29 04:24:45;;;;;;;0.15;0.15;;;;;;;;;;4967494;28;57805;-74
2023/08/29 04:27:10;;;;;;;0.65;0.20;;;;;;;;;;4968530;28;58482;-77
2023/08/29 04:29:36;;;;;;;0.20;0.20;;;;;;;;;;4970026;28;58417;-77
2023/08/29 04:32:01;;;;;;;0.30;0.10;;;;;;;;;;4966073;28;58457;-75
2023/08/29 04:34:26;;;;;;;0.30;0.30;;;;;;;;;;4971748;28;58525;-74
2023/08/29 04:36:51;;;;;;;0.20;0.20;;;;;;;;;;4968468;28;59009;-76
2023/08/29 04:39:17;;;;;;;0.20;0.20;;;;;;;;;;4973888;28;58487;-74
2023/08/29 04:41:43;;;;;;;0.95;0.30;;;;;;;;;;4977261;28;58977;-75
2023/08/29 04:44:08;;;;;;;0.32;0.32;;;;;;;;;;4974047;28;59709;-74
2023/08/29 04:46:33;;;;;;;0.10;0.10;;;;;;;;;;4969802;28;58392;-79
2023/08/29 04:48:58;;;;;;;0.38;0.38;;;;;;;;;;4971657;28;59232;-75
2023/08/29 04:51:24;;;;;;;0.53;0.20;;;;;;;;;;4970674;28;58130;-74
2023/08/29 04:53:49;;;;;;;0.63;0.32;;;;;;;;;;4975472;28;58392;-76
2023/08/29 04:56:14;;;;;;;0.93;0.60;;;;;;;;;;4974215;28;58464;-77
2023/08/29 04:58:39;;;;;;;1.05;0.70;;;;;;;;;;4974020;28;58834;-76
2023/08/29 05:01:04;;;;;;;1.20;1.02;;;;;;;;;;4973316;28;59406;-74
2023/08/29 05:03:29;;;;;;;3.05;1.13;;;;;;;;;;4973007;28;59080;-74
2023/08/29 05:05:55;;;;;;;2.83;1.10;;;;;;;;;;4974156;28;58559;-73
2023/08/29 05:08:21;;;;;;;1.20;0.90;;;;;;;;;;4959714;28;61556;-74
2023/08/29 05:10:46;;;;;;;1.08;0.70;;;;;;;;;;4970418;28;59188;-77
2023/08/29 05:13:11;;;;;;;1.33;1.03;;;;;;;;;;4972018;28;58517;-74
2023/08/29 05:15:36;;;;;;;1.70;0.83;;;;;;;;;;4972443;28;59183;-73
2023/08/29 05:18:01;;;;;;;7.15;1.30;;;;;;;;;;4973507;28;58438;-74
2023/08/29 05:20:26;;;;;;;1.00;0.70;;;;;;;;;;4975092;28;59223;-73
2023/08/29 05:22:51;;;;;;;0.60;0.50;;;;;;;;;;4973966;28;59355;-76
2023/08/29 05:25:17;;;;;;;1.57;0.70;;;;;;;;;;4973831;28;58464;-74
2023/08/29 05:27:42;;;;;;;0.83;0.80;;;;;;;;;;4972047;28;58607;-74
2023/08/29 05:30:07;;;;;;;3.88;0.98;;;;;;;;;;4974909;28;58430;-75
2023/08/29 05:32:33;;;;;;;3.33;1.02;;;;;;;;;;4973498;28;58335;-73
2023/08/29 05:34:58;;;;;;;0.77;0.70;;;;;;;;;;4974058;28;58471;-75
2023/08/29 05:37:23;;;;;;;0.70;0.50;;;;;;;;;;4974379;28;58284;-77
2023/08/29 05:39:49;;;;;;;1.57;0.50;;;;;;;;;;4974940;28;58909;-76
2023/08/29 05:42:14;;;;;;;1.48;0.63;;;;;;;;;;4974366;28;58799;-75
2023/08/29 05:44:39;;;;;;;0.70;0.70;;;;;;;;;;4974884;28;58215;-73
2023/08/29 05:47:04;;;;;;;0.85;0.50;;;;;;;;;;4976655;28;59167;-74
2023/08/29 05:49:29;;;;;;;3.60;0.67;;;;;;;;;;4973118;28;58442;-76
2023/08/29 05:51:54;;;;;;;0.50;0.50;;;;;;;;;;4976902;28;58576;-73
2023/08/29 05:54:19;;;;;;;4.18;0.60;;;;;;;;;;4972086;28;58489;-74
2023/08/29 05:56:45;;;;;;;1.38;0.70;;;;;;;;;;4973981;28;58548;-74
2023/08/29 05:59:10;;;;;;;1.23;1.08;;;;;;;;;;4975253;28;58412;-74
2023/08/29 06:01:35;;;;;;;0.93;0.80;;;;;;;;;;4973118;28;58401;-74
2023/08/29 06:04:00;;;;;;;1.70;1.10;;;;;;;;;;4973952;28;58393;-75
2023/08/29 06:06:25;;;;;;;0.60;0.60;;;;;;;;;;4973632;28;58412;-74
2023/08/29 06:08:51;;;;;;;0.80;0.73;;;;;;;;;;4973780;28;58549;-75
2023/08/29 06:11:16;;;;;;;0.57;0.50;;;;;;;;;;4973032;28;58405;-73
2023/08/29 06:13:41;;;;;;;1.10;0.57;;;;;;;;;;4955318;28;58433;-75
2023/08/29 06:16:06;;;;;;;0.90;0.77;;;;;;;;;;4972562;28;59529;-77
2023/08/29 06:18:33;;;;;;;0.93;0.80;;;;;;;;;;4975898;28;58407;-74
2023/08/29 06:20:58;;;;;;;0.57;0.50;;;;;;;;;;4962388;28;62358;-77
2023/08/29 06:23:23;;;;;;;0.82;0.70;;;;;;;;;;4976533;28;58446;-73
2023/08/29 06:25:49;;;;;;;0.45;0.45;;;;;;;;;;4978922;28;58543;-76
2023/08/29 06:28:14;;;;;;;1.38;0.73;;;;;;;;;;4963056;28;59408;-74
2023/08/29 06:30:40;;;;;;;0.57;0.57;;;;;;;;;;4976755;28;58582;-75
2023/08/29 06:33:08;;;;;;;1.13;0.70;;;;;;;;;;4976512;28;58744;-74
2023/08/29 06:35:35;;;;;;;4.03;0.70;;;;;;;;;;4973432;28;58531;-78
2023/08/29 06:38:01;;;;;;;1.80;0.95;;;;;;;;;;4975548;28;58519;-76
2023/08/29 06:40:26;;;;;;;4.27;0.70;;;;;;;;;;4977416;28;58950;-73
2023/08/29 06:42:51;;;;;;;1.25;0.60;;;;;;;;;;4975951;28;58969;-77
2023/08/29 06:45:16;;;;;;;0.52;0.52;;;;;;;;;;4976096;28;58615;-73
2023/08/29 06:47:42;;;;;;;0.60;0.60;;;;;;;;;;4973079;28;58608;-75
2023/08/29 06:50:08;;;;;;;1.02;0.73;;;;;;;;;;4975740;28;58373;-76
2023/08/29 06:52:33;;;;;;;0.93;0.93;;;;;;;;;;4975311;28;65033;-77
2023/08/29 06:54:58;;;;;;;1.00;0.97;;;;;;;;;;4971711;28;59340;-73
2023/08/29 06:57:24;;;;;;;1.55;0.70;;;;;;;;;;4978341;28;59490;-73
2023/08/29 06:59:49;;;;;;;1.37;0.90;;;;;;;;;;4977364;28;59249;-76
2023/08/29 07:02:14;;;;;;;0.70;0.50;;;;;;;;;;4979425;28;58645;-74
2023/08/29 07:04:39;;;;;;;0.73;0.73;;;;;;;;;;4976673;28;58479;-75
2023/08/29 07:07:04;;;;;;;1.13;0.60;;;;;;;;;;4975374;28;58981;-73
2023/08/29 07:09:30;;;;;;;0.93;0.50;;;;;;;;;;4977041;28;58468;-74
2023/08/29 07:11:56;;;;;;;0.52;0.50;;;;;;;;;;4977539;28;59812;-75
2023/08/29 07:14:21;;;;;;;1.58;0.60;;;;;;;;;;4979544;28;58347;-75
2023/08/29 07:16:46;;;;;;;0.80;0.75;;;;;;;;;;4978713;28;58352;-73
2023/08/29 07:19:12;;;;;;;1.63;0.70;;;;;;;;;;4975017;28;58414;-74
2023/08/29 07:21:37;;;;;;;1.17;0.70;;;;;;;;;;4975063;28;58896;-74
2023/08/29 07:24:03;;;;;;;0.90;0.60;;;;;;;;;;4974928;28;58353;-75
2023/08/29 07:26:28;;;;;;;1.15;0.38;;;;;;;;;;4974554;28;58908;-74
2023/08/29 07:28:54;;;;;;;2.05;0.63;;;;;;;;;;4977009;28;58459;-78
2023/08/29 07:31:19;;;;;;;1.00;0.75;;;;;;;;;;4976080;28;59775;-73
2023/08/29 07:33:44;;;;;;;0.70;0.63;;;;;;;;;;4975136;28;58469;-74
2023/08/29 07:36:09;;;;;;;0.63;0.60;;;;;;;;;;4975836;28;58454;-76
2023/08/29 07:38:35;;;;;;;0.70;0.70;;;;;;;;;;4976358;28;58607;-79
2023/08/29 07:41:01;;;;;;;1.30;0.70;;;;;;;;;;4975455;28;59163;-74
2023/08/29 07:43:26;;;;;;;0.70;0.65;;;;;;;;;;4978629;28;58325;-80
2023/08/29 07:45:52;;;;;;;1.77;0.50;;;;;;;;;;4977502;28;59229;-74
2023/08/29 07:48:18;;;;;;;0.77;0.77;;;;;;;;;;4975634;28;58450;-74
2023/08/29 07:50:43;;;;;;;0.95;0.80;;;;;;;;;;4978692;28;60070;-76
2023/08/29 07:53:08;;;;;;;0.93;0.70;;;;;;;;;;4974480;28;58391;-77
2023/08/29 07:55:33;;;;;;;1.23;0.63;;;;;;;;;;4974098;28;58387;-76
2023/08/29 07:58:00;;;;;;;0.87;0.73;;;;;;;;;;4976197;28;58836;-76
2023/08/29 08:00:28;;;;;;;0.93;0.73;;;;;;;;;;4973796;28;59256;-75
2023/08/29 08:02:53;;;;;;;0.70;0.40;;;;;;;;;;4977687;28;58418;-75
2023/08/29 08:05:18;;;;;;;1.00;0.90;;;;;;;;;;4977268;28;58802;-77
2023/08/29 08:07:44;;;;;;;0.93;0.70;;;;;;;;;;4977795;28;59043;-80
2023/08/29 08:10:10;;;;;;;0.40;0.40;;;;;;;;;;4973951;28;59439;-74
2023/08/29 08:12:37;;;;;;;1.92;0.50;;;;;;;;;;4977332;28;59195;-74
2023/08/29 08:15:04;;;;;;;0.57;0.57;;;;;;;;;;4973712;28;58198;-73
2023/08/29 08:17:29;;;;;;;0.93;0.50;;;;;;;;;;4976240;28;58851;-74
2023/08/29 08:19:55;;;;;;;0.57;0.57;;;;;;;;;;4976499;28;59256;-74
2023/08/29 08:22:20;;;;;;;0.43;0.43;;;;;;;;;;4974601;28;58461;-76
2023/08/29 08:24:45;;;;;;;0.82;0.68;;;;;;;;;;4974738;28;58862;-73
2023/08/29 08:27:10;;;;;;;0.40;0.40;;;;;;;;;;4976427;28;58411;-74
2023/08/29 08:29:36;;;;;;;1.07;0.40;;;;;;;;;;4977593;28;58387;-78
2023/08/29 08:32:01;;;;;;;0.83;0.60;;;;;;;;;;4977672;28;59692;-74
2023/08/29 08:34:26;;;;;;;0.60;0.52;;;;;;;;;;4975323;28;58340;-77
2023/08/29 08:36:51;;;;;;;0.50;0.50;;;;;;;;;;4974777;28;59483;-77
2023/08/29 08:39:17;;;;;;;0.70;0.30;;;;;;;;;;4974536;28;58143;-75
2023/08/29 08:41:42;;;;;;;0.68;0.30;;;;;;;;;;4976764;28;58367;-74
2023/08/29 08:44:11;;;;;;;0.73;0.70;;;;;;;;;;4974045;28;58896;-74
2023/08/29 08:46:37;;;;;;;0.70;0.50;;;;;;;;;;4976482;28;65057;-73
2023/08/29 08:49:02;;;;;;;0.40;0.40;;;;;;;;;;4976377;28;58415;-76
2023/08/29 08:51:29;;;;;;;1.43;0.40;;;;;;;;;;4973680;28;60151;-76
2023/08/29 08:53:55;;;;;;;0.57;0.55;;;;;;;;;;4972461;28;58344;-75
2023/08/29 08:56:21;;;;;;;0.63;0.50;;;;;;;;;;4975405;28;58572;-73
2023/08/29 08:58:46;;;;;;;0.50;0.50;;;;;;;;;;4974553;28;58748;-73
2023/08/29 09:01:11;;;;;;;0.77;0.40;;;;;;;;;;4973343;28;58454;-75
2023/08/29 09:03:38;;;;;;;0.52;0.47;;;;;;;;;;4974851;28;59603;-77
2023/08/29 09:06:03;;;;;;;1.00;0.38;;;;;;;;;;4972977;28;58888;-78
2023/08/29 09:08:31;;;;;;;1.33;0.80;;;;;;;;;;4979129;28;58406;-75
2023/08/29 09:10:59;;;;;;;0.52;0.30;;;;;;;;;;4973707;28;58510;-77
2023/08/29 09:13:24;;;;;;;0.20;0.20;;;;;;;;;;4977431;28;58609;-79
2023/08/29 09:15:49;;;;;;;0.50;0.50;;;;;;;;;;4956744;28;60213;-75
2023/08/29 09:18:22;;;;;;;0.20;0.20;;;;;;;;;;4973986;28;59253;-73
2023/08/29 09:20:50;;;;;;;0.35;0.32;;;;;;;;;;4972161;28;58392;-74
2023/08/29 09:23:22;;;;;;;0.38;0.38;;;;;;;;;;4975355;28;60916;-78
2023/08/29 09:25:54;;;;;;;0.75;0.40;;;;;;;;;;4974175;28;58989;-77
2023/08/29 09:28:19;;;;;;;0.80;0.80;;;;;;;;;;4976011;28;58482;-75
2023/08/29 09:30:44;;;;;;;0.38;0.20;;;;;;;;;;4975802;28;59279;-74
2023/08/29 09:33:10;;;;;;;0.80;0.40;;;;;;;;;;4974742;28;59796;-77
2023/08/29 09:35:35;;;;;;;0.40;0.40;;;;;;;;;;4974741;28;59272;-75
2023/08/29 09:38:00;;;;;;;0.40;0.40;;;;;;;;;;4971329;28;58374;-75
2023/08/29 09:40:25;;;;;;;0.87;0.50;;;;;;;;;;4974548;28;58471;-78
2023/08/29 09:42:54;;;;;;;0.20;0.20;;;;;;;;;;4975621;28;58753;-73
2023/08/29 09:45:19;;;;;;;0.43;0.43;;;;;;;;;;4970853;28;59322;-76
2023/08/29 09:47:44;;;;;;;0.97;0.30;;;;;;;;;;4974840;28;58672;-74
2023/08/29 09:50:10;;;;;;;0.65;0.47;;;;;;;;;;4974517;28;60932;-74
2023/08/29 09:52:35;;;;;;;0.87;0.83;;;;;;;;;;4974057;28;58668;-76
2023/08/29 09:55:01;;;;;;;0.43;0.40;;;;;;;;;;4973672;28;58479;-73
2023/08/29 09:57:27;;;;;;;0.20;0.20;;;;;;;;;;4972878;28;59466;-73
2023/08/29 09:59:56;;;;;;;0.30;0.30;;;;;;;;;;4972732;28;58336;-76
2023/08/29 10:02:22;;;;;;;0.50;0.50;;;;;;;;;;4973325;28;58794;-77
2023/08/29 10:04:53;;;;;;;0.55;0.35;;;;;;;;;;4974313;28;58864;-75
2023/08/29 10:07:24;;;;;;;0.30;0.30;;;;;;;;;;4973399;28;58481;-77
2023/08/29 10:09:50;;;;;;;0.17;0.15;;;;;;;;;;4972197;28;60149;-74
2023/08/29 10:12:15;;;;;;;0.20;0.20;;;;;;;;;;4975107;28;58325;-75
2023/08/29 10:14:41;;;;;;;0.70;0.50;;;;;;;;;;4971223;28;58495;-74
2023/08/29 10:17:07;;;;;;;0.77;0.77;;;;;;;;;;4974639;28;58847;-75
2023/08/29 10:19:32;;;;;;;0.20;0.20;;;;;;;;;;4976629;28;58491;-79
2023/08/29 10:21:57;;;;;;;0.30;0.30;;;;;;;;;;4970201;28;58707;-74
2023/08/29 10:24:23;;;;;;;0.30;0.20;;;;;;;;;;4972195;28;58502;-75
2023/08/29 10:26:49;;;;;;;0.87;0.40;;;;;;;;;;4956928;28;58341;-77
2023/08/29 10:29:14;;;;;;;0.30;0.30;;;;;;;;;;4974558;28;59205;-74
2023/08/29 10:31:39;;;;;;;0.97;0.70;;;;;;;;;;4971844;28;58451;-73
2023/08/29 10:34:04;;;;;;;0.20;0.20;;;;;;;;;;4975135;28;58412;-74
2023/08/29 10:36:29;;;;;;;0.80;0.60;;;;;;;;;;4973929;28;58365;-72
2023/08/29 10:38:56;;;;;;;0.40;0.40;;;;;;;;;;4973302;28;58801;-73
2023/08/29 10:41:21;;;;;;;0.28;0.28;;;;;;;;;;4972860;28;58994;-75
2023/08/29 10:43:46;;;;;;;0.20;0.20;;;;;;;;;;4973022;28;58491;-75
2023/08/29 10:46:13;;;;;;;0.40;0.40;;;;;;;;;;4973503;28;58384;-72
2023/08/29 10:48:43;;;;;;;0.68;0.25;;;;;;;;;;4973240;28;59784;-73
2023/08/29 10:51:16;;;;;;;0.35;0.20;;;;;;;;;;4972036;28;59255;-75
2023/08/29 10:53:46;;;;;;;0.47;0.38;;;;;;;;;;4972033;28;58511;-74
2023/08/29 10:56:13;;;;;;;0.20;0.20;;;;;;;;;;4971797;28;58446;-73
2023/08/29 10:58:39;;;;;;;0.30;0.30;;;;;;;;;;4953304;28;61297;-72
2023/08/29 11:01:05;;;;;;;0.28;0.28;;;;;;;;;;4975983;28;58545;-72
2023/08/29 11:03:37;;;;;;;0.30;0.30;;;;;;;;;;4976977;28;58498;-74
2023/08/29 11:06:02;;;;;;;0.13;0.13;;;;;;;;;;4976536;28;58030;-72
2023/08/29 11:08:27;;;;;;;0.28;0.20;;;;;;;;;;4973122;28;59577;-73
2023/08/29 11:11:11;;;;;;;0.40;0.30;;;;;;;;;;4960319;28;58685;-72
2023/08/29 11:13:53;;;;;;;0.17;0.17;;;;;;;;;;4976844;28;58411;-72
2023/08/29 11:16:18;;;;;;;0.50;0.40;;;;;;;;;;4975253;28;59609;-71
2023/08/29 11:18:43;;;;;;;0.27;0.27;;;;;;;;;;4972768;28;58892;-73
2023/08/29 11:21:08;;;;;;;0.33;0.30;;;;;;;;;;4977182;28;58587;-73
2023/08/29 11:23:47;;;;;;;0.95;0.30;;;;;;;;;;4973282;28;59675;-77
2023/08/29 11:26:12;;;;;;;1.17;0.25;;;;;;;;;;4977276;28;58399;-72
2023/08/29 11:28:39;;;;;;;1.07;0.57;;;;;;;;;;4978365;28;59825;-72
2023/08/29 11:31:05;;;;;;;0.17;0.17;;;;;;;;;;4975611;28;60181;-76
2023/08/29 11:33:31;;;;;;;0.40;0.20;;;;;;;;;;4974638;28;58408;-72
2023/08/29 11:35:56;;;;;;;0.20;0.20;;;;;;;;;;4974232;28;59450;-72
2023/08/29 11:38:29;;;;;;;0.47;0.47;;;;;;;;;;4976306;28;58487;-72
2023/08/29 11:40:55;;;;;;;1.65;0.30;;;;;;;;;;4978691;28;58190;-73
2023/08/29 11:43:20;;;;;;;0.22;0.22;;;;;;;;;;4979011;28;58916;-71
2023/08/29 11:45:45;;;;;;;0.20;0.20;;;;;;;;;;4976870;28;58443;-73
2023/08/29 11:48:11;;;;;;;0.00;0.00;;;;;;;;;;4975727;28;58414;-72
2023/08/29 11:50:38;;;;;;;0.98;0.38;;;;;;;;;;4973714;28;58415;-73
2023/08/29 11:53:03;;;;;;;1.05;0.28;;;;;;;;;;4956252;28;58462;-75
2023/08/29 11:55:31;;;;;;;0.20;0.20;;;;;;;;;;4973604;28;58469;-76
2023/08/29 11:57:57;;;;;;;0.20;0.20;;;;;;;;;;4976548;28;59277;-74
2023/08/29 12:00:24;;;;;;;0.20;0.20;;;;;;;;;;4975671;28;59741;-75
2023/08/29 12:02:50;;;;;;;0.30;0.30;;;;;;;;;;4974186;28;59319;-75
2023/08/29 12:05:15;;;;;;;0.30;0.30;;;;;;;;;;4976133;28;58981;-73
2023/08/29 12:07:41;;;;;;;0.20;0.20;;;;;;;;;;4958152;28;58497;-74
2023/08/29 12:10:08;;;;;;;0.20;0.20;;;;;;;;;;4976443;28;60123;-73
2023/08/29 12:12:37;;;;;;;0.13;0.13;;;;;;;;;;4970580;28;58407;-74
2023/08/29 12:15:05;;;;;;;0.10;0.10;;;;;;;;;;4976720;28;59238;-75
2023/08/29 12:17:41;;;;;;;0.60;0.60;;;;;;;;;;4973420;28;58482;-73
2023/08/29 12:20:12;;;;;;;0.20;0.20;;;;;;;;;;4975765;28;58255;-76
2023/08/29 12:22:38;;;;;;;0.20;0.20;;;;;;;;;;4978364;28;63616;-75
2023/08/29 12:25:04;;;;;;;0.60;0.47;;;;;;;;;;4974433;28;59211;-77
2023/08/29 12:27:30;;;;;;;0.20;0.20;;;;;;;;;;4955278;28;58462;-73
2023/08/29 12:29:55;;;;;;;0.20;0.20;;;;;;;;;;4967980;28;58247;-78
2023/08/29 12:32:24;;;;;;;0.13;0.10;;;;;;;;;;4968725;28;58416;-75
2023/08/29 12:34:50;;;;;;;0.17;0.13;;;;;;;;;;4973949;28;59769;-75
2023/08/29 12:37:15;;;;;;;0.20;0.20;;;;;;;;;;4972209;28;58608;-73
2023/08/29 12:39:43;;;;;;;0.10;0.10;;;;;;;;;;4975171;28;58379;-73
2023/08/29 12:42:08;;;;;;;0.20;0.20;;;;;;;;;;4975039;28;58954;-73
2023/08/29 12:44:33;;;;;;;3.88;0.10;;;;;;;;;;4970267;28;58424;-76
2023/08/29 12:46:58;;;;;;;1.70;0.17;;;;;;;;;;4975505;28;58561;-76
2023/08/29 12:49:23;;;;;;;2.05;0.30;;;;;;;;;;4972103;28;58440;-74
2023/08/29 12:51:50;;;;;;;0.20;0.20;;;;;;;;;;4975786;28;58612;-76
2023/08/29 12:54:15;;;;;;;0.22;0.22;;;;;;;;;;4956245;28;60209;-77
2023/08/29 12:56:40;;;;;;;0.30;0.30;;;;;;;;;;4971916;28;58605;-77
2023/08/29 12:59:05;;;;;;;0.35;0.20;;;;;;;;;;4973006;28;58479;-77
2023/08/29 13:01:30;;;;;;;3.50;0.30;;;;;;;;;;4974723;28;59555;-76
2023/08/29 13:03:56;;;;;;;0.97;0.40;;;;;;;;;;4973217;28;58514;-76
2023/08/29 13:06:21;;;;;;;2.10;0.73;;;;;;;;;;4975507;28;58446;-73
2023/08/29 13:08:46;;;;;;;1.80;0.23;;;;;;;;;;4973503;28;59670;-76
2023/08/29 13:11:11;;;;;;;0.20;0.20;;;;;;;;;;4974744;28;58259;-75
2023/08/29 13:13:37;;;;;;;1.00;0.40;;;;;;;;;;4975251;28;58618;-75
2023/08/29 13:16:03;;;;;;;0.73;0.73;;;;;;;;;;4973032;28;58432;-77
2023/08/29 13:18:28;;;;;;;1.10;0.55;;;;;;;;;;4971621;28;58757;-79
2023/08/29 13:20:53;;;;;;;0.30;0.28;;;;;;;;;;4975030;28;58333;-76
2023/08/29 13:23:18;;;;;;;3.72;0.43;;;;;;;;;;4974631;28;58342;-75
2023/08/29 13:25:44;;;;;;;1.43;0.50;;;;;;;;;;4973522;28;58459;-76
2023/08/29 13:28:09;;;;;;;2.20;0.27;;;;;;;;;;4973429;28;60876;-77
2023/08/29 13:30:35;;;;;;;0.40;0.10;;;;;;;;;;4973252;28;59703;-74
2023/08/29 13:33:00;;;;;;;0.77;0.38;;;;;;;;;;4971328;28;58936;-79
2023/08/29 13:35:25;;;;;;;2.97;0.40;;;;;;;;;;4960081;28;59323;-78
2023/08/29 13:37:50;;;;;;;4.60;1.02;;;;;;;;;;4973105;28;58440;-74
2023/08/29 13:40:16;;;;;;;0.57;0.30;;;;;;;;;;4967819;28;58511;-72
2023/08/29 13:42:42;;;;;;;0.65;0.30;;;;;;;;;;4973513;28;58391;-72
2023/08/29 13:45:07;;;;;;;0.90;0.50;;;;;;;;;;4977111;28;58434;-74
2023/08/29 13:47:32;;;;;;;2.88;0.30;;;;;;;;;;4974720;28;59100;-72
2023/08/29 13:49:57;;;;;;;4.37;1.37;;;;;;;;;;4973801;28;58416;-71
2023/08/29 13:52:22;;;;;;;0.20;0.10;;;;;;;;;;4976792;28;58429;-70
2023/08/29 13:54:48;;;;;;;0.73;0.23;;;;;;;;;;4969858;28;58729;-74
2023/08/29 13:57:13;;;;;;;2.53;0.40;;;;;;;;;;4974779;28;58367;-75
2023/08/29 13:59:39;;;;;;;0.30;0.30;;;;;;;;;;4973852;28;59580;-73
2023/08/29 14:02:04;;;;;;;0.55;0.25;;;;;;;;;;4971442;28;58475;-74
2023/08/29 14:04:29;;;;;;;2.47;0.40;;;;;;;;;;4970877;28;58331;-77
2023/08/29 14:06:54;;;;;;;1.70;0.40;;;;;;;;;;4972902;28;58851;-73
2023/08/29 14:09:20;;;;;;;0.23;0.20;;;;;;;;;;4973197;28;59645;-74
2023/08/29 14:11:45;;;;;;;0.50;0.50;;;;;;;;;;4976012;28;58723;-74
2023/08/29 14:14:11;;;;;;;0.85;0.40;;;;;;;;;;4973681;28;60260;-73
2023/08/29 14:16:37;;;;;;;0.47;0.40;;;;;;;;;;4974153;28;58230;-74
2023/08/29 14:19:02;;;;;;;0.67;0.43;;;;;;;;;;4971900;28;58796;-74
2023/08/29 14:21:27;;;;;;;1.00;0.63;;;;;;;;;;4973183;28;59102;-73
2023/08/29 14:23:52;;;;;;;3.80;0.80;;;;;;;;;;4972034;28;58598;-74
2023/08/29 14:26:17;;;;;;;1.45;0.35;;;;;;;;;;4970885;28;59232;-74
2023/08/29 14:28:42;;;;;;;0.50;0.23;;;;;;;;;;4972978;28;61000;-74
2023/08/29 14:31:08;;;;;;;2.27;0.40;;;;;;;;;;4974962;28;58194;-75
2023/08/29 14:33:33;;;;;;;3.20;0.20;;;;;;;;;;4973282;28;60266;-75
2023/08/29 14:36:00;;;;;;;1.77;0.53;;;;;;;;;;4972429;28;58469;-73